sensor_id;sensor_type;location;lat;lon;timestamp;pressure;altitude;pressure_sealevel;temperature;humidity
41102;BME280;26845;50.190;19.178;2022-10-04T00:01:58;98796.67;;;9.82;100.00
41102;BME280;26845;50.190;19.178;2022-10-04T00:09:47;98787.01;;;9.80;100.00
41102;BME280;26845;50.190;19.178;2022-10-04T00:13:13;98777.86;;;9.79;100.00
41102;BME280;26845;50.190;19.178;2022-10-04T00:15:06;98781.18;;;9.79;100.00
41102;BME280;26845;50.190;19.178;2022-10-04T00:17:35;98777.02;;;9.79;100.00
41102;BME280;26845;50.190;19.178;2022-10-04T00:20:03;98787.11;;;9.75;100.00
41102;BME280;26845;50.190;19.178;2022-10-04T00:22:33;98781.81;;;9.76;100.00
41102;BME280;26845;50.190;19.178;2022-10-04T00:31:18;98784.86;;;9.77;100.00
41102;BME280;26845;50.190;19.178;2022-10-04T00:33:53;98784.86;;;9.77;100.00
41102;BME280;26845;50.190;19.178;2022-10-04T00:36:36;98787.01;;;9.80;100.00
41102;BME280;26845;50.190;19.178;2022-10-04T00:47:22;98775.28;;;9.83;100.00
41102;BME280;26845;50.190;19.178;2022-10-04T00:52:47;98766.63;;;9.84;100.00
41102;BME280;26845;50.190;19.178;2022-10-04T00:55:24;98772.74;;;9.84;100.00
41102;BME280;26845;50.190;19.178;2022-10-04T00:57:56;98769.67;;;9.85;100.00
41102;BME280;26845;50.190;19.178;2022-10-04T01:00:25;98766.37;;;9.83;100.00
41102;BME280;26845;50.190;19.178;2022-10-04T01:03:03;98761.97;;;9.82;100.00
41102;BME280;26845;50.190;19.178;2022-10-04T01:05:38;98768.64;;;9.81;100.00
41102;BME280;26845;50.190;19.178;2022-10-04T01:08:21;98768.69;;;9.79;100.00
41102;BME280;26845;50.190;19.178;2022-10-04T01:10:53;98775.58;;;9.81;100.00
41102;BME280;26845;50.190;19.178;2022-10-04T01:13:40;98766.89;;;9.85;100.00
41102;BME280;26845;50.190;19.178;2022-10-04T01:16:18;98768.58;;;9.84;100.00
41102;BME280;26845;50.190;19.178;2022-10-04T01:18:47;98766.95;;;9.83;100.00
41102;BME280;26845;50.190;19.178;2022-10-04T01:21:23;98759.49;;;9.81;100.00
41102;BME280;26845;50.190;19.178;2022-10-04T01:29:26;98755.90;;;9.80;100.00
41102;BME280;26845;50.190;19.178;2022-10-04T01:31:56;98741.20;;;9.80;100.00
41102;BME280;26845;50.190;19.178;2022-10-04T01:34:27;98754.00;;;9.78;100.00
41102;BME280;26845;50.190;19.178;2022-10-04T01:36:57;98765.05;;;9.81;100.00
41102;BME280;26845;50.190;19.178;2022-10-04T01:39:26;98761.16;;;9.82;100.00
41102;BME280;26845;50.190;19.178;2022-10-04T01:47:26;98767.77;;;9.83;100.00
41102;BME280;26845;50.190;19.178;2022-10-04T01:49:59;98760.83;;;9.83;100.00
41102;BME280;26845;50.190;19.178;2022-10-04T01:52:38;98771.11;;;9.83;100.00
41102;BME280;26845;50.190;19.178;2022-10-04T01:55:11;98762.55;;;9.82;100.00
41102;BME280;26845;50.190;19.178;2022-10-04T01:57:45;98762.40;;;9.87;100.00
41102;BME280;26845;50.190;19.178;2022-10-04T02:00:14;98755.41;;;9.89;100.00
41102;BME280;26845;50.190;19.178;2022-10-04T02:02:54;98749.80;;;9.92;100.00
41102;BME280;26845;50.190;19.178;2022-10-04T02:05:29;98748.65;;;9.93;100.00
41102;BME280;26845;50.190;19.178;2022-10-04T02:08:01;98762.80;;;9.94;100.00
41102;BME280;26845;50.190;19.178;2022-10-04T02:10:33;98761.53;;;9.89;100.00
41102;BME280;26845;50.190;19.178;2022-10-04T02:13:07;98765.39;;;9.90;100.00
41102;BME280;26845;50.190;19.178;2022-10-04T02:15:37;98756.16;;;9.93;100.00
41102;BME280;26845;50.190;19.178;2022-10-04T02:18:14;98760.09;;;9.91;100.00
41102;BME280;26845;50.190;19.178;2022-10-04T02:20:47;98768.41;;;9.91;100.00
41102;BME280;26845;50.190;19.178;2022-10-04T02:23:21;98767.59;;;9.91;100.00
41102;BME280;26845;50.190;19.178;2022-10-04T02:25:45;98760.14;;;9.89;100.00
41102;BME280;26845;50.190;19.178;2022-10-04T02:28:13;98757.75;;;9.85;100.00
41102;BME280;26845;50.190;19.178;2022-10-04T02:30:43;98768.91;;;9.82;100.00
41102;BME280;26845;50.190;19.178;2022-10-04T02:33:16;98767.88;;;9.78;100.00
41102;BME280;26845;50.190;19.178;2022-10-04T02:35:45;98761.56;;;9.75;100.00
41102;BME280;26845;50.190;19.178;2022-10-04T02:38:38;98764.67;;;9.74;100.00
41102;BME280;26845;50.190;19.178;2022-10-04T02:41:08;98756.64;;;9.72;100.00
41102;BME280;26845;50.190;19.178;2022-10-04T02:43:58;98762.00;;;9.68;100.00
41102;BME280;26845;50.190;19.178;2022-10-04T02:46:36;98762.30;;;9.67;100.00
41102;BME280;26845;50.190;19.178;2022-10-04T02:49:09;98759.91;;;9.63;100.00
41102;BME280;26845;50.190;19.178;2022-10-04T02:54:41;98756.61;;;9.61;100.00
41102;BME280;26845;50.190;19.178;2022-10-04T02:57:20;98756.38;;;9.60;100.00
41102;BME280;26845;50.190;19.178;2022-10-04T03:00:00;98752.78;;;9.59;100.00
41102;BME280;26845;50.190;19.178;2022-10-04T03:02:29;98757.19;;;9.60;100.00
41102;BME280;26845;50.190;19.178;2022-10-04T03:05:05;98752.16;;;9.62;100.00
41102;BME280;26845;50.190;19.178;2022-10-04T03:07:35;98757.65;;;9.65;100.00
41102;BME280;26845;50.190;19.178;2022-10-04T03:10:06;98748.94;;;9.69;100.00
41102;BME280;26845;50.190;19.178;2022-10-04T03:12:34;98745.02;;;9.70;100.00
41102;BME280;26845;50.190;19.178;2022-10-04T03:15:06;98761.62;;;9.73;100.00
41102;BME280;26845;50.190;19.178;2022-10-04T03:17:35;98757.97;;;9.75;100.00
41102;BME280;26845;50.190;19.178;2022-10-04T03:20:06;98760.45;;;9.76;100.00
41102;BME280;26845;50.190;19.178;2022-10-04T03:22:37;98760.13;;;9.78;100.00
41102;BME280;26845;50.190;19.178;2022-10-04T03:25:08;98758.16;;;9.78;100.00
41102;BME280;26845;50.190;19.178;2022-10-04T03:27:36;98770.16;;;9.76;100.00
41102;BME280;26845;50.190;19.178;2022-10-04T03:30:06;98764.34;;;9.75;100.00
41102;BME280;26845;50.190;19.178;2022-10-04T03:32:34;98757.40;;;9.75;100.00
41102;BME280;26845;50.190;19.178;2022-10-04T03:35:04;98769.59;;;9.77;100.00
41102;BME280;26845;50.190;19.178;2022-10-04T03:37:35;98767.44;;;9.74;100.00
41102;BME280;26845;50.190;19.178;2022-10-04T03:40:04;98766.98;;;9.69;100.00
41102;BME280;26845;50.190;19.178;2022-10-04T03:42:35;98760.91;;;9.67;100.00
41102;BME280;26845;50.190;19.178;2022-10-04T03:45:06;98760.91;;;9.67;100.00
41102;BME280;26845;50.190;19.178;2022-10-04T03:47:43;98751.53;;;9.65;100.00
41102;BME280;26845;50.190;19.178;2022-10-04T03:50:32;98758.14;;;9.67;100.00
41102;BME280;26845;50.190;19.178;2022-10-04T03:53:27;98758.95;;;9.67;100.00
41102;BME280;26845;50.190;19.178;2022-10-04T03:55:44;98764.83;;;9.66;100.00
41102;BME280;26845;50.190;19.178;2022-10-04T03:58:15;98762.88;;;9.66;100.00
41102;BME280;26845;50.190;19.178;2022-10-04T04:01:04;98767.03;;;9.66;100.00
41102;BME280;26845;50.190;19.178;2022-10-04T04:09:36;98770.67;;;9.64;100.00
41102;BME280;26845;50.190;19.178;2022-10-04T04:12:19;98777.38;;;9.63;100.00
41102;BME280;26845;50.190;19.178;2022-10-04T04:14:49;98773.78;;;9.63;100.00
41102;BME280;26845;50.190;19.178;2022-10-04T04:17:29;98784.06;;;9.62;100.00
41102;BME280;26845;50.190;19.178;2022-10-04T04:20:05;98782.41;;;9.61;100.00
41102;BME280;26845;50.190;19.178;2022-10-04T04:22:35;98786.08;;;9.59;100.00
41102;BME280;26845;50.190;19.178;2022-10-04T04:25:06;98789.34;;;9.61;100.00
41102;BME280;26845;50.190;19.178;2022-10-04T04:27:36;98782.11;;;9.63;100.00
41102;BME280;26845;50.190;19.178;2022-10-04T04:30:05;98793.09;;;9.68;100.00
41102;BME280;26845;50.190;19.178;2022-10-04T04:32:42;98798.32;;;9.69;100.00
41102;BME280;26845;50.190;19.178;2022-10-04T04:35:31;98797.80;;;9.67;100.00
41102;BME280;26845;50.190;19.178;2022-10-04T04:40:50;98794.16;;;9.69;100.00
41102;BME280;26845;50.190;19.178;2022-10-04T04:43:20;98796.69;;;9.68;100.00
41102;BME280;26845;50.190;19.178;2022-10-04T04:45:48;98789.80;;;9.66;100.00
41102;BME280;26845;50.190;19.178;2022-10-04T04:48:17;98803.44;;;9.65;100.00
41102;BME280;26845;50.190;19.178;2022-10-04T04:50:52;98803.11;;;9.66;100.00
41102;BME280;26845;50.190;19.178;2022-10-04T04:53:28;98807.08;;;9.63;99.50
41102;BME280;26845;50.190;19.178;2022-10-04T04:56:02;98811.81;;;9.62;99.68
41102;BME280;26845;50.190;19.178;2022-10-04T04:58:32;98811.77;;;9.65;99.49
41102;BME280;26845;50.190;19.178;2022-10-04T05:01:05;98814.27;;;9.64;99.28
41102;BME280;26845;50.190;19.178;2022-10-04T05:03:35;98819.37;;;9.59;99.17
41102;BME280;26845;50.190;19.178;2022-10-04T05:06:02;98829.48;;;9.53;99.26
41102;BME280;26845;50.190;19.178;2022-10-04T05:08:32;98832.06;;;9.49;99.43
41102;BME280;26845;50.190;19.178;2022-10-04T05:13:50;98835.30;;;9.40;99.40
41102;BME280;26845;50.190;19.178;2022-10-04T05:16:30;98838.99;;;9.35;99.42
41102;BME280;26845;50.190;19.178;2022-10-04T05:19:13;98834.92;;;9.30;99.66
41102;BME280;26845;50.190;19.178;2022-10-04T05:21:49;98842.19;;;9.29;99.73
41102;BME280;26845;50.190;19.178;2022-10-04T05:24:22;98838.59;;;9.28;99.81
41102;BME280;26845;50.190;19.178;2022-10-04T05:26:53;98846.59;;;9.30;99.84
41102;BME280;26845;50.190;19.178;2022-10-04T05:29:25;98852.42;;;9.31;99.83
41102;BME280;26845;50.190;19.178;2022-10-04T05:32:14;98853.28;;;9.29;99.64
41102;BME280;26845;50.190;19.178;2022-10-04T05:34:51;98854.95;;;9.27;99.61
41102;BME280;26845;50.190;19.178;2022-10-04T05:37:44;98860.73;;;9.31;99.77
41102;BME280;26845;50.190;19.178;2022-10-04T05:49:04;98878.20;;;9.45;99.38
41102;BME280;26845;50.190;19.178;2022-10-04T05:51:46;98879.70;;;9.54;99.30
41102;BME280;26845;50.190;19.178;2022-10-04T05:54:25;98881.03;;;9.56;99.24
41102;BME280;26845;50.190;19.178;2022-10-04T06:11:35;98901.71;;;9.48;98.77
41102;BME280;26845;50.190;19.178;2022-10-04T06:15:08;98901.94;;;9.51;99.08
41102;BME280;26845;50.190;19.178;2022-10-04T06:20:45;98909.48;;;9.62;98.85
41102;BME280;26845;50.190;19.178;2022-10-04T06:23:33;98917.75;;;9.64;98.55
41102;BME280;26845;50.190;19.178;2022-10-04T06:26:04;98921.63;;;9.66;98.84
41102;BME280;26845;50.190;19.178;2022-10-04T06:28:38;98923.53;;;9.68;98.87
41102;BME280;26845;50.190;19.178;2022-10-04T06:31:22;98923.73;;;9.72;98.33
41102;BME280;26845;50.190;19.178;2022-10-04T06:54:44;98946.28;;;10.09;97.50
41102;BME280;26845;50.190;19.178;2022-10-04T06:57:47;98945.31;;;10.16;97.23
41102;BME280;26845;50.190;19.178;2022-10-04T07:00:18;98952.03;;;10.12;97.36
41102;BME280;26845;50.190;19.178;2022-10-04T07:02:50;98956.34;;;10.19;97.79
41102;BME280;26845;50.190;19.178;2022-10-04T07:05:54;98949.56;;;10.25;97.67
41102;BME280;26845;50.190;19.178;2022-10-04T07:08:17;98956.35;;;10.32;97.83
41102;BME280;26845;50.190;19.178;2022-10-04T07:10:51;98959.02;;;10.38;97.49
41102;BME280;26845;50.190;19.178;2022-10-04T07:30:18;98975.02;;;10.68;96.77
41102;BME280;26845;50.190;19.178;2022-10-04T07:32:48;98978.66;;;10.66;96.37
41102;BME280;26845;50.190;19.178;2022-10-04T07:35:34;98981.96;;;10.68;97.14
41102;BME280;26845;50.190;19.178;2022-10-04T07:38:17;98975.72;;;10.74;95.48
41102;BME280;26845;50.190;19.178;2022-10-04T07:43:51;98981.27;;;10.74;96.09
41102;BME280;26845;50.190;19.178;2022-10-04T07:46:45;98987.42;;;10.85;96.82
41102;BME280;26845;50.190;19.178;2022-10-04T07:49:22;98989.83;;;11.00;94.93
41102;BME280;26845;50.190;19.178;2022-10-04T08:06:55;99005.02;;;11.28;92.79
41102;BME280;26845;50.190;19.178;2022-10-04T08:09:42;99009.06;;;11.21;93.44
41102;BME280;26845;50.190;19.178;2022-10-04T08:12:42;99015.45;;;11.22;94.30
41102;BME280;26845;50.190;19.178;2022-10-04T08:21:13;99017.66;;;11.34;93.60
41102;BME280;26845;50.190;19.178;2022-10-04T08:26:56;99025.48;;;11.54;93.37
41102;BME280;26845;50.190;19.178;2022-10-04T08:29:43;99022.51;;;11.62;93.81
41102;BME280;26845;50.190;19.178;2022-10-04T08:35:28;99025.58;;;11.71;92.51
41102;BME280;26845;50.190;19.178;2022-10-04T08:38:32;99032.34;;;11.79;92.56
41102;BME280;26845;50.190;19.178;2022-10-04T09:16:45;99045.40;;;13.83;86.97
41102;BME280;26845;50.190;19.178;2022-10-04T09:19:24;99054.52;;;13.36;83.58
41102;BME280;26845;50.190;19.178;2022-10-04T09:22:16;99059.41;;;13.04;82.89
41102;BME280;26845;50.190;19.178;2022-10-04T09:42:31;99070.38;;;13.88;84.46
41102;BME280;26845;50.190;19.178;2022-10-04T09:56:30;99088.17;;;13.31;84.67
41102;BME280;26845;50.190;19.178;2022-10-04T09:59:30;99095.34;;;13.15;83.95
41102;BME280;26845;50.190;19.178;2022-10-04T10:02:35;99097.22;;;12.91;81.74
41102;BME280;26845;50.190;19.178;2022-10-04T10:16:54;99096.13;;;15.17;85.64
41102;BME280;26845;50.190;19.178;2022-10-04T10:44:24;99110.58;;;15.34;77.87
41102;BME280;26845;50.190;19.178;2022-10-04T10:53:27;99117.09;;;15.53;75.63
41102;BME280;26845;50.190;19.178;2022-10-04T11:11:06;99123.11;;;15.07;76.12
41102;BME280;26845;50.190;19.178;2022-10-04T11:13:56;99125.27;;;15.73;74.38
41102;BME280;26845;50.190;19.178;2022-10-04T11:34:41;99132.27;;;17.44;70.73
41102;BME280;26845;50.190;19.178;2022-10-04T11:49:37;99142.98;;;17.66;68.26
41102;BME280;26845;50.190;19.178;2022-10-04T12:01:19;99145.70;;;17.63;60.38
41102;BME280;26845;50.190;19.178;2022-10-04T12:04:27;99134.14;;;17.46;56.75
41102;BME280;26845;50.190;19.178;2022-10-04T12:07:11;99129.71;;;17.33;60.55
41102;BME280;26845;50.190;19.178;2022-10-04T12:09:58;99137.09;;;17.37;62.77
41102;BME280;26845;50.190;19.178;2022-10-04T12:18:57;99132.66;;;17.24;61.99
41102;BME280;26845;50.190;19.178;2022-10-04T12:24:48;99141.47;;;16.85;59.73
41102;BME280;26845;50.190;19.178;2022-10-04T12:30:43;99136.16;;;16.59;61.32
41102;BME280;26845;50.190;19.178;2022-10-04T12:53:52;99154.14;;;16.58;57.16
41102;BME280;26845;50.190;19.178;2022-10-04T12:56:53;99157.13;;;16.86;58.88
41102;BME280;26845;50.190;19.178;2022-10-04T13:22:55;99162.45;;;17.59;52.03
41102;BME280;26845;50.190;19.178;2022-10-04T13:28:51;99170.78;;;17.43;54.41
41102;BME280;26845;50.190;19.178;2022-10-04T13:55:36;99192.70;;;18.53;57.36
41102;BME280;26845;50.190;19.178;2022-10-04T14:01:37;99202.59;;;17.78;57.09
41102;BME280;26845;50.190;19.178;2022-10-04T14:16:40;99195.42;;;18.43;56.00
41102;BME280;26845;50.190;19.178;2022-10-04T14:19:55;99197.16;;;18.26;55.59
41102;BME280;26845;50.190;19.178;2022-10-04T14:25:55;99194.53;;;18.11;49.74
41102;BME280;26845;50.190;19.178;2022-10-04T14:29:03;99196.19;;;17.41;52.10
41102;BME280;26845;50.190;19.178;2022-10-04T14:40:12;99189.08;;;16.43;53.44
41102;BME280;26845;50.190;19.178;2022-10-04T14:48:59;99190.42;;;16.30;56.72
41102;BME280;26845;50.190;19.178;2022-10-04T14:51:45;99184.30;;;16.49;56.49
41102;BME280;26845;50.190;19.178;2022-10-04T15:00:51;99190.88;;;16.59;56.29
41102;BME280;26845;50.190;19.178;2022-10-04T15:06:35;99198.80;;;16.51;57.03
41102;BME280;26845;50.190;19.178;2022-10-04T15:09:22;99202.65;;;16.53;56.94
41102;BME280;26845;50.190;19.178;2022-10-04T15:21:09;99217.63;;;16.51;57.87
41102;BME280;26845;50.190;19.178;2022-10-04T15:23:51;99216.84;;;16.62;58.02
41102;BME280;26845;50.190;19.178;2022-10-04T15:37:24;99224.65;;;16.96;58.48
41102;BME280;26845;50.190;19.178;2022-10-04T15:43:04;99227.56;;;16.94;58.23
41102;BME280;26845;50.190;19.178;2022-10-04T15:45:59;99231.30;;;16.85;59.49
41102;BME280;26845;50.190;19.178;2022-10-04T15:55:05;99242.42;;;16.61;60.43
41102;BME280;26845;50.190;19.178;2022-10-04T16:00:22;99250.91;;;16.40;60.04
41102;BME280;26845;50.190;19.178;2022-10-04T16:03:14;99248.20;;;16.16;60.06
41102;BME280;26845;50.190;19.178;2022-10-04T16:19:26;99256.03;;;15.16;62.05
41102;BME280;26845;50.190;19.178;2022-10-04T16:24:42;99255.73;;;14.85;62.55
41102;BME280;26845;50.190;19.178;2022-10-04T16:27:39;99268.73;;;14.66;62.73
41102;BME280;26845;50.190;19.178;2022-10-04T16:35:44;99273.44;;;14.16;63.54
41102;BME280;26845;50.190;19.178;2022-10-04T16:38:23;99275.34;;;14.01;63.64
41102;BME280;26845;50.190;19.178;2022-10-04T16:43:36;99284.05;;;13.53;63.70
41102;BME280;26845;50.190;19.178;2022-10-04T16:46:30;99287.38;;;13.35;64.06
41102;BME280;26845;50.190;19.178;2022-10-04T17:13:22;99309.30;;;11.59;66.85
41102;BME280;26845;50.190;19.178;2022-10-04T17:16:11;99310.70;;;11.45;67.04
41102;BME280;26845;50.190;19.178;2022-10-04T17:21:41;99317.50;;;11.12;67.78
41102;BME280;26845;50.190;19.178;2022-10-04T17:24:40;99315.36;;;10.92;67.94
41102;BME280;26845;50.190;19.178;2022-10-04T17:33:01;99325.71;;;10.59;68.87
41102;BME280;26845;50.190;19.178;2022-10-04T17:41:26;99332.44;;;10.39;69.55
41102;BME280;26845;50.190;19.178;2022-10-04T17:46:56;99340.82;;;10.15;70.00
41102;BME280;26845;50.190;19.178;2022-10-04T17:49:32;99336.04;;;10.02;70.30
41102;BME280;26845;50.190;19.178;2022-10-04T17:52:22;99340.02;;;9.93;70.56
41102;BME280;26845;50.190;19.178;2022-10-04T17:55:23;99345.30;;;9.95;71.05
41102;BME280;26845;50.190;19.178;2022-10-04T17:58:07;99344.13;;;9.98;72.08
41102;BME280;26845;50.190;19.178;2022-10-04T18:00:50;99346.02;;;10.03;71.54
41102;BME280;26845;50.190;19.178;2022-10-04T18:03:39;99349.33;;;10.05;71.49
41102;BME280;26845;50.190;19.178;2022-10-04T18:06:33;99349.64;;;10.01;71.57
41102;BME280;26845;50.190;19.178;2022-10-04T18:09:09;99354.95;;;10.00;71.59
41102;BME280;26845;50.190;19.178;2022-10-04T18:15:07;99356.11;;;9.96;71.83
41102;BME280;26845;50.190;19.178;2022-10-04T18:17:44;99357.82;;;9.92;72.05
41102;BME280;26845;50.190;19.178;2022-10-04T18:23:00;99356.27;;;9.83;72.40
41102;BME280;26845;50.190;19.178;2022-10-04T18:25:30;99360.70;;;9.84;72.71
41102;BME280;26845;50.190;19.178;2022-10-04T18:28:02;99366.94;;;9.76;72.54
41102;BME280;26845;50.190;19.178;2022-10-04T18:36:19;99373.94;;;9.47;72.84
41102;BME280;26845;50.190;19.178;2022-10-04T18:42:14;99375.72;;;9.38;73.00
41102;BME280;26845;50.190;19.178;2022-10-04T18:44:57;99377.49;;;9.29;73.38
41102;BME280;26845;50.190;19.178;2022-10-04T18:47:33;99386.97;;;9.25;73.57
41102;BME280;26845;50.190;19.178;2022-10-04T18:55:58;99383.66;;;9.23;73.89
41102;BME280;26845;50.190;19.178;2022-10-04T18:58:57;99389.51;;;9.19;73.80
41102;BME280;26845;50.190;19.178;2022-10-04T19:10:39;99402.98;;;8.72;74.32
41102;BME280;26845;50.190;19.178;2022-10-04T19:13:27;99404.95;;;8.69;74.38
41102;BME280;26845;50.190;19.178;2022-10-04T19:18:55;99407.01;;;8.53;74.69
41102;BME280;26845;50.190;19.178;2022-10-04T19:24:46;99404.70;;;8.24;75.84
41102;BME280;26845;50.190;19.178;2022-10-04T19:27:24;99411.06;;;8.24;76.12
41102;BME280;26845;50.190;19.178;2022-10-04T19:32:44;99409.66;;;8.29;76.48
41102;BME280;26845;50.190;19.178;2022-10-04T19:41:19;99421.30;;;8.26;77.06
41102;BME280;26845;50.190;19.178;2022-10-04T19:44:40;99421.88;;;8.23;76.84
41102;BME280;26845;50.190;19.178;2022-10-04T19:47:43;99429.37;;;8.23;76.73
41102;BME280;26845;50.190;19.178;2022-10-04T19:50:38;99425.79;;;8.20;77.21
41102;BME280;26845;50.190;19.178;2022-10-04T19:53:23;99428.84;;;8.16;77.37
41102;BME280;26845;50.190;19.178;2022-10-04T19:55:58;99431.59;;;8.18;78.62
41102;BME280;26845;50.190;19.178;2022-10-04T19:58:43;99437.69;;;8.20;78.63
41102;BME280;26845;50.190;19.178;2022-10-04T20:01:24;99443.46;;;8.26;78.81
41102;BME280;26845;50.190;19.178;2022-10-04T20:03:52;99448.42;;;8.29;78.80
41102;BME280;26845;50.190;19.178;2022-10-04T20:06:39;99443.45;;;8.29;78.79
41102;BME280;26845;50.190;19.178;2022-10-04T20:17:54;99452.26;;;8.41;78.16
41102;BME280;26845;50.190;19.178;2022-10-04T20:23:12;99456.12;;;8.45;78.13
41102;BME280;26845;50.190;19.178;2022-10-04T20:31:01;99463.80;;;8.53;78.19
41102;BME280;26845;50.190;19.178;2022-10-04T20:44:44;99471.14;;;8.29;78.11
41102;BME280;26845;50.190;19.178;2022-10-04T20:47:32;99473.66;;;8.25;78.50
41102;BME280;26845;50.190;19.178;2022-10-04T20:50:14;99480.31;;;8.22;78.26
41102;BME280;26845;50.190;19.178;2022-10-04T20:52:50;99493.92;;;8.13;78.62
41102;BME280;26845;50.190;19.178;2022-10-04T20:55:26;99487.30;;;8.09;78.71
41102;BME280;26845;50.190;19.178;2022-10-04T20:58:01;99494.48;;;8.13;78.98
41102;BME280;26845;50.190;19.178;2022-10-04T21:00:32;99492.55;;;8.10;78.67
41102;BME280;26845;50.190;19.178;2022-10-04T21:03:12;99498.97;;;8.01;78.50
41102;BME280;26845;50.190;19.178;2022-10-04T21:05:37;99495.94;;;7.97;78.81
41102;BME280;26845;50.190;19.178;2022-10-04T21:13:53;99483.82;;;7.80;79.49
41102;BME280;26845;50.190;19.178;2022-10-04T21:19:42;99497.42;;;7.69;79.85
41102;BME280;26845;50.190;19.178;2022-10-04T21:22:07;99491.63;;;7.63;79.38
41102;BME280;26845;50.190;19.178;2022-10-04T21:24:39;99490.81;;;7.60;79.58
41102;BME280;26845;50.190;19.178;2022-10-04T21:27:11;99496.61;;;7.58;80.16
41102;BME280;26845;50.190;19.178;2022-10-04T21:29:40;99500.75;;;7.58;80.20
41102;BME280;26845;50.190;19.178;2022-10-04T21:32:06;99501.32;;;7.53;79.95
41102;BME280;26845;50.190;19.178;2022-10-04T21:34:33;99514.33;;;7.52;80.39
41102;BME280;26845;50.190;19.178;2022-10-04T21:37:00;99500.50;;;7.50;80.61
41102;BME280;26845;50.190;19.178;2022-10-04T21:39:26;99512.95;;;7.50;80.86
41102;BME280;26845;50.190;19.178;2022-10-04T21:41:53;99518.48;;;7.44;80.79
41102;BME280;26845;50.190;19.178;2022-10-04T21:44:20;99520.72;;;7.40;80.54
41102;BME280;26845;50.190;19.178;2022-10-04T21:46:46;99513.80;;;7.37;80.81
41102;BME280;26845;50.190;19.178;2022-10-04T21:49:13;99516.57;;;7.37;80.78
41102;BME280;26845;50.190;19.178;2022-10-04T21:51:39;99517.39;;;7.35;80.60
41102;BME280;26845;50.190;19.178;2022-10-04T21:54:06;99514.89;;;7.36;81.02
41102;BME280;26845;50.190;19.178;2022-10-04T21:56:33;99511.56;;;7.37;80.99
41102;BME280;26845;50.190;19.178;2022-10-04T21:59:00;99508.54;;;7.36;81.28
41102;BME280;26845;50.190;19.178;2022-10-04T22:01:26;99509.92;;;7.41;82.25
41102;BME280;26845;50.190;19.178;2022-10-04T22:03:53;99512.69;;;7.41;81.34
41102;BME280;26845;50.190;19.178;2022-10-04T22:06:20;99517.09;;;7.39;81.42
41102;BME280;26845;50.190;19.178;2022-10-04T22:08:47;99515.45;;;7.43;81.84
41102;BME280;26845;50.190;19.178;2022-10-04T22:11:13;99517.36;;;7.46;81.73
41102;BME280;26845;50.190;19.178;2022-10-04T22:13:40;99514.06;;;7.46;82.30
41102;BME280;26845;50.190;19.178;2022-10-04T22:16:08;99512.13;;;7.44;81.81
41102;BME280;26845;50.190;19.178;2022-10-04T22:18:34;99515.72;;;7.44;81.78
41102;BME280;26845;50.190;19.178;2022-10-04T22:21:01;99507.68;;;7.48;82.06
41102;BME280;26845;50.190;19.178;2022-10-04T22:23:30;99508.53;;;7.49;81.71
41102;BME280;26845;50.190;19.178;2022-10-04T22:26:14;99507.68;;;7.46;82.09
41102;BME280;26845;50.190;19.178;2022-10-04T22:28:51;99507.42;;;7.44;81.92
41102;BME280;26845;50.190;19.178;2022-10-04T22:31:27;99493.89;;;7.43;82.38
41102;BME280;26845;50.190;19.178;2022-10-04T22:33:55;99496.09;;;7.49;82.66
41102;BME280;26845;50.190;19.178;2022-10-04T22:36:36;99494.70;;;7.46;81.98
41102;BME280;26845;50.190;19.178;2022-10-04T22:41:42;99474.53;;;7.40;82.51
41102;BME280;26845;50.190;19.178;2022-10-04T22:44:20;99482.83;;;7.40;82.41
41102;BME280;26845;50.190;19.178;2022-10-04T22:46:53;99483.09;;;7.41;82.27
41102;BME280;26845;50.190;19.178;2022-10-04T22:49:33;99484.47;;;7.44;82.57
41102;BME280;26845;50.190;19.178;2022-10-04T22:52:05;99484.73;;;7.45;82.26
41102;BME280;26845;50.190;19.178;2022-10-04T22:54:34;99489.17;;;7.43;82.17
41102;BME280;26845;50.190;19.178;2022-10-04T22:57:01;99497.73;;;7.39;81.86
41102;BME280;26845;50.190;19.178;2022-10-04T22:59:37;99503.83;;;7.36;81.94
41102;BME280;26845;50.190;19.178;2022-10-04T23:02:09;99506.33;;;7.33;81.89
41102;BME280;26845;50.190;19.178;2022-10-04T23:04:48;99503.56;;;7.28;81.78
41102;BME280;26845;50.190;19.178;2022-10-04T23:07:11;99502.19;;;7.25;82.12
41102;BME280;26845;50.190;19.178;2022-10-04T23:09:38;99500.27;;;7.23;81.99
41102;BME280;26845;50.190;19.178;2022-10-04T23:12:08;99503.56;;;7.23;82.30
41102;BME280;26845;50.190;19.178;2022-10-04T23:14:35;99503.86;;;7.21;82.13
41102;BME280;26845;50.190;19.178;2022-10-04T23:17:16;99504.95;;;7.23;82.96
41102;BME280;26845;50.190;19.178;2022-10-04T23:19:44;99504.39;;;7.26;83.17
41102;BME280;26845;50.190;19.178;2022-10-04T23:22:14;99505.51;;;7.27;83.25
41102;BME280;26845;50.190;19.178;2022-10-04T23:24:43;99505.77;;;7.26;83.05
41102;BME280;26845;50.190;19.178;2022-10-04T23:27:13;99494.71;;;7.26;82.87
41102;BME280;26845;50.190;19.178;2022-10-04T23:29:42;99512.16;;;7.24;82.61
41102;BME280;26845;50.190;19.178;2022-10-04T23:32:12;99508.27;;;7.19;82.64
41102;BME280;26845;50.190;19.178;2022-10-04T23:34:43;99513.80;;;7.17;82.63
41102;BME280;26845;50.190;19.178;2022-10-04T23:37:18;99509.65;;;7.17;82.81
41102;BME280;26845;50.190;19.178;2022-10-04T23:39:46;99515.73;;;7.19;82.73
41102;BME280;26845;50.190;19.178;2022-10-04T23:42:26;99518.23;;;7.18;82.65
41102;BME280;26845;50.190;19.178;2022-10-04T23:44:56;99511.59;;;7.19;82.60
41102;BME280;26845;50.190;19.178;2022-10-04T23:47:32;99515.48;;;7.20;82.55
41102;BME280;26845;50.190;19.178;2022-10-04T23:50:00;99506.89;;;7.19;82.46
41102;BME280;26845;50.190;19.178;2022-10-04T23:52:36;99502.74;;;7.22;82.46
41102;BME280;26845;50.190;19.178;2022-10-04T23:55:25;99503.30;;;7.19;82.25
41102;BME280;26845;50.190;19.178;2022-10-04T23:57:55;99505.80;;;7.13;82.37
